createdAt,value
2023-04-08T00:00:00.215Z,27.48
2023-04-08T00:05:32.095Z,27.48
2023-04-08T00:08:00.477Z,26.23
2023-04-08T00:10:27.974Z,26.58
2023-04-08T00:12:57.877Z,27.48
2023-04-08T00:15:28.772Z,28.33
2023-04-08T00:17:57.658Z,27.77
2023-04-08T00:20:26.974Z,28.60
2023-04-08T00:22:54.557Z,26.67
2023-04-08T00:25:24.785Z,27.27
2023-04-08T00:27:53.334Z,26.85
2023-04-08T00:30:21.569Z,27.40
2023-04-08T00:32:50.088Z,28.17
2023-04-08T00:35:20.115Z,26.95
2023-04-08T00:37:49.933Z,28.45
2023-04-08T00:40:19.264Z,27.65
2023-04-08T00:42:48.839Z,28.23
2023-04-08T00:45:17.760Z,28.83
2023-04-08T00:47:48.980Z,28.45
2023-04-08T00:50:17.726Z,28.40
2023-04-08T00:52:45.237Z,27.80
2023-04-08T00:55:12.776Z,28.52
2023-04-08T00:57:40.296Z,28.58
2023-04-08T01:00:09.837Z,27.45
2023-04-08T01:02:48.207Z,28.73
2023-04-08T01:05:22.015Z,28.25
2023-04-08T01:07:51.876Z,26.80
2023-04-08T01:12:54.986Z,28.35
2023-04-08T01:15:23.011Z,29.05
2023-04-08T01:17:54.553Z,28.63
2023-04-08T01:20:23.420Z,30.00
2023-04-08T01:22:55.012Z,30.35
2023-04-08T01:25:25.476Z,32.03
2023-04-08T01:27:56.520Z,32.25
2023-04-08T01:30:26.020Z,31.58
2023-04-08T01:32:57.463Z,31.35
2023-04-08T01:35:25.917Z,29.80
2023-04-08T01:37:54.419Z,29.10
2023-04-08T01:40:23.507Z,29.70
2023-04-08T01:42:52.995Z,28.92
2023-04-08T01:45:20.737Z,29.42
2023-04-08T01:47:50.730Z,29.55
2023-04-08T01:50:20.810Z,28.00
2023-04-08T01:52:53.343Z,26.35
2023-04-08T01:55:21.959Z,26.52
2023-04-08T01:57:53.825Z,26.90
2023-04-08T02:00:23.916Z,26.38
2023-04-08T02:02:53.002Z,25.95
2023-04-08T02:05:21.573Z,25.02
2023-04-08T02:07:49.909Z,25.13
2023-04-08T02:10:19.033Z,23.25
2023-04-08T02:12:47.840Z,25.08
2023-04-08T02:15:16.055Z,24.65
2023-04-08T02:18:01.754Z,24.63
2023-04-08T02:20:34.371Z,23.52
2023-04-08T02:23:04.340Z,23.08
2023-04-08T02:25:32.946Z,22.48
2023-04-08T02:28:01.711Z,24.05
2023-04-08T02:30:29.825Z,23.33
2023-04-08T02:32:58.036Z,23.02
2023-04-08T02:35:26.735Z,23.35
2023-04-08T02:37:56.908Z,23.13
2023-04-08T02:40:32.962Z,23.55
2023-04-08T02:43:04.044Z,24.23
2023-04-08T02:45:32.690Z,24.08
2023-04-08T02:48:02.806Z,23.02
2023-04-08T02:50:30.687Z,23.67
2023-04-08T02:52:58.420Z,23.60
2023-04-08T02:55:26.671Z,23.52
2023-04-08T02:57:54.188Z,23.27
2023-04-08T03:00:22.175Z,23.60
2023-04-08T03:02:50.069Z,25.52
2023-04-08T03:05:18.558Z,24.10
2023-04-08T03:07:48.052Z,23.75
2023-04-08T03:10:18.191Z,24.20
2023-04-08T03:12:46.375Z,24.20
2023-04-08T03:15:14.558Z,25.10
2023-04-08T03:17:42.297Z,25.38
2023-04-08T03:20:10.129Z,24.95
2023-04-08T03:22:37.996Z,24.85
2023-04-08T03:25:06.352Z,26.00
2023-04-08T03:27:33.775Z,25.85
2023-04-08T03:30:04.526Z,24.92
2023-04-08T03:32:32.488Z,24.25
2023-04-08T03:35:00.608Z,24.90
2023-04-08T03:37:28.117Z,24.08
2023-04-08T03:39:56.824Z,23.80
2023-04-08T03:42:24.628Z,23.73
2023-04-08T03:44:57.562Z,23.45
2023-04-08T03:47:25.355Z,25.58
2023-04-08T03:49:55.500Z,23.58
2023-04-08T03:52:23.809Z,23.10
2023-04-08T03:54:56.438Z,23.55
2023-04-08T03:57:23.987Z,23.17
2023-04-08T03:59:51.795Z,23.98
2023-04-08T04:02:20.166Z,22.75
2023-04-08T04:04:49.433Z,22.23
2023-04-08T04:07:17.993Z,23.00
2023-04-08T04:09:48.324Z,21.42
2023-04-08T04:12:18.381Z,20.70
2023-04-08T04:14:48.471Z,20.88
2023-04-08T04:17:17.893Z,21.15
2023-04-08T04:19:45.571Z,21.00
2023-04-08T04:22:14.671Z,20.73
2023-04-08T04:24:42.754Z,20.77
2023-04-08T04:27:10.416Z,20.42
2023-04-08T04:29:38.072Z,20.38
2023-04-08T04:32:06.694Z,19.55
2023-04-08T04:34:34.260Z,20.42
2023-04-08T04:37:05.371Z,20.08
2023-04-08T04:39:33.721Z,21.20
2023-04-08T04:42:01.374Z,20.48
2023-04-08T04:44:29.263Z,19.17
2023-04-08T04:46:57.161Z,19.13
2023-04-08T04:49:24.832Z,18.55
2023-04-08T04:51:52.524Z,18.77
2023-04-08T04:54:20.587Z,17.27
2023-04-08T04:56:49.708Z,16.75
2023-04-08T04:59:22.191Z,17.65
2023-04-08T05:01:50.624Z,18.52
2023-04-08T05:04:20.781Z,17.63
2023-04-08T05:06:51.399Z,16.55
2023-04-08T05:09:19.756Z,16.00
2023-04-08T05:11:49.021Z,15.20
2023-04-08T05:14:19.605Z,16.52
2023-04-08T05:19:17.330Z,15.80
2023-04-08T05:21:48.569Z,16.93
2023-04-08T05:24:18.793Z,17.40
2023-04-08T05:26:48.404Z,17.38
2023-04-08T05:29:17.531Z,18.13
2023-04-08T05:31:45.764Z,19.52
2023-04-08T05:34:13.495Z,20.75
2023-04-08T05:36:41.512Z,21.67
2023-04-08T05:39:09.162Z,21.38
2023-04-08T05:41:37.000Z,21.48
2023-04-08T05:44:04.666Z,21.40
2023-04-08T05:46:34.237Z,21.02
2023-04-08T05:49:01.998Z,19.20
2023-04-08T05:51:30.552Z,20.10
2023-04-08T05:53:58.347Z,20.23
2023-04-08T05:56:29.299Z,19.70
2023-04-08T05:58:56.946Z,19.95
2023-04-08T06:01:26.053Z,21.50
2023-04-08T06:03:56.283Z,20.23
2023-04-08T06:08:52.496Z,19.38
2023-04-08T06:11:20.957Z,20.30
2023-04-08T06:13:50.333Z,19.95
2023-04-08T06:16:21.086Z,20.50
2023-04-08T06:18:49.843Z,19.80
2023-04-08T06:21:22.012Z,19.85
2023-04-08T06:23:49.585Z,19.65
2023-04-08T06:26:19.448Z,20.38
2023-04-08T06:28:53.811Z,19.60
2023-04-08T06:31:22.004Z,20.13
2023-04-08T06:33:49.868Z,19.13
2023-04-08T06:36:19.875Z,20.83
2023-04-08T06:38:48.888Z,20.80
2023-04-08T06:41:17.436Z,20.90
2023-04-08T06:43:48.090Z,21.20
2023-04-08T06:48:45.286Z,21.02
2023-04-08T06:51:15.511Z,20.48
2023-04-08T06:56:11.500Z,20.33
2023-04-08T06:58:40.833Z,19.98
2023-04-08T07:01:08.974Z,19.35
2023-04-08T07:03:36.971Z,18.33
2023-04-08T07:06:05.103Z,17.88
2023-04-08T07:08:34.418Z,17.88
2023-04-08T07:11:02.639Z,17.85
2023-04-08T07:13:30.951Z,18.60
2023-04-08T07:15:58.474Z,18.40
2023-04-08T07:18:26.565Z,18.08
2023-04-08T07:20:54.572Z,18.52
2023-04-08T07:23:22.580Z,17.45
2023-04-08T07:25:50.229Z,17.33
2023-04-08T07:28:18.499Z,18.10
2023-04-08T07:30:49.494Z,15.88
2023-04-08T07:33:18.305Z,17.85
2023-04-08T07:35:49.103Z,17.55
2023-04-08T07:38:17.214Z,16.17
2023-04-08T07:40:45.030Z,17.83
2023-04-08T07:43:13.344Z,17.40
2023-04-08T07:45:42.720Z,17.45
2023-04-08T07:48:11.498Z,17.25
2023-04-08T07:51:08.126Z,16.52
2023-04-08T07:53:31.541Z,16.15
2023-04-08T07:55:59.792Z,17.17
2023-04-08T07:58:32.401Z,17.65
2023-04-08T08:01:03.716Z,16.98
2023-04-08T08:03:33.865Z,17.58
2023-04-08T08:06:06.320Z,18.88
2023-04-08T08:08:36.446Z,18.73
2023-04-08T08:11:03.976Z,20.10
2023-04-08T08:13:35.964Z,18.77
2023-04-08T08:16:03.900Z,18.48
2023-04-08T08:18:34.799Z,19.45
2023-04-08T08:21:03.355Z,19.23
2023-04-08T08:23:31.633Z,18.42
2023-04-08T08:26:02.271Z,18.38
2023-04-08T08:28:30.553Z,17.98
2023-04-08T08:30:58.240Z,18.00
2023-04-08T08:33:26.732Z,16.80
2023-04-08T08:35:55.625Z,16.67
2023-04-08T08:38:27.747Z,16.88
2023-04-08T08:40:59.655Z,17.58
2023-04-08T08:43:27.797Z,16.75
2023-04-08T08:45:56.002Z,16.65
2023-04-08T08:48:23.673Z,16.05
2023-04-08T08:50:51.306Z,15.93
2023-04-08T08:53:23.394Z,15.85
2023-04-08T08:56:16.298Z,15.48
2023-04-08T08:58:40.235Z,15.25
2023-04-08T09:01:27.298Z,14.75
2023-04-08T09:04:16.053Z,14.60
2023-04-08T09:06:47.572Z,15.02
2023-04-08T09:09:16.031Z,15.02
2023-04-08T09:11:48.784Z,15.02
2023-04-08T09:14:21.004Z,14.90
2023-04-08T09:16:52.366Z,15.00
2023-04-08T09:19:20.527Z,14.20
2023-04-08T09:22:06.020Z,13.82
2023-04-08T09:24:33.954Z,13.50
2023-04-08T09:27:08.774Z,13.95
2023-04-08T09:29:39.667Z,13.35
2023-04-08T09:32:09.400Z,14.07
2023-04-08T09:34:37.685Z,13.20
2023-04-08T09:37:05.312Z,13.57
2023-04-08T09:39:35.257Z,13.25
2023-04-08T09:42:07.088Z,12.77
2023-04-08T09:44:39.202Z,11.98
2023-04-08T09:47:12.768Z,11.55
2023-04-08T09:49:49.325Z,11.32
2023-04-08T09:52:34.595Z,11.95
2023-04-08T09:55:07.712Z,12.10
2023-04-08T09:57:37.212Z,11.43
2023-04-08T10:00:06.228Z,11.00
2023-04-08T10:02:51.203Z,11.05
2023-04-08T10:05:34.040Z,11.30
2023-04-08T10:08:01.968Z,12.38
2023-04-08T10:10:29.470Z,11.20
2023-04-08T10:13:02.370Z,10.82
2023-04-08T10:15:31.401Z,11.10
2023-04-08T10:18:06.986Z,10.30
2023-04-08T10:20:37.760Z,11.15
2023-04-08T10:23:07.879Z,10.90
2023-04-08T10:28:25.163Z,9.60
2023-04-08T10:30:59.817Z,9.75
2023-04-08T10:33:30.766Z,8.75
2023-04-08T10:36:10.384Z,10.70
2023-04-08T10:38:38.366Z,10.65
2023-04-08T10:41:05.877Z,11.43
2023-04-08T10:43:37.445Z,10.60
2023-04-08T10:46:05.735Z,10.27
2023-04-08T10:48:33.303Z,9.35
2023-04-08T10:51:02.035Z,9.40
2023-04-08T10:53:30.887Z,8.88
2023-04-08T10:56:13.272Z,8.45
2023-04-08T10:58:56.823Z,8.55
2023-04-08T11:01:24.669Z,8.90
2023-04-08T11:03:52.924Z,8.73
2023-04-08T11:06:21.397Z,7.97
2023-04-08T11:08:52.852Z,8.38
2023-04-08T11:11:21.740Z,8.43
2023-04-08T11:13:53.748Z,8.05
2023-04-08T11:16:23.246Z,7.32
2023-04-08T11:18:51.975Z,8.03
2023-04-08T11:21:19.928Z,6.88
2023-04-08T11:23:50.338Z,7.22
2023-04-08T11:26:20.318Z,7.35
2023-04-08T11:28:52.072Z,6.97
2023-04-08T11:31:23.513Z,8.07
2023-04-08T11:33:54.330Z,7.65
2023-04-08T11:36:22.940Z,7.03
2023-04-08T11:38:50.553Z,8.52
2023-04-08T11:41:19.963Z,8.23
2023-04-08T11:43:55.037Z,15.30
2023-04-08T11:46:23.889Z,7.47
2023-04-08T11:48:58.734Z,9.38
2023-04-08T11:51:29.454Z,8.02
2023-04-08T11:53:58.024Z,11.05
2023-04-08T11:56:27.717Z,8.23
2023-04-08T11:58:58.418Z,8.75
2023-04-08T12:01:26.388Z,7.82
2023-04-08T12:04:01.443Z,16.95
2023-04-08T12:06:31.890Z,8.50
2023-04-08T12:09:00.214Z,7.88
2023-04-08T12:11:27.777Z,7.65
2023-04-08T12:13:55.694Z,24.23
2023-04-08T12:16:23.738Z,10.07
2023-04-08T12:18:51.404Z,8.77
2023-04-08T12:21:23.046Z,8.75
2023-04-08T12:23:52.498Z,8.73
2023-04-08T12:26:20.510Z,8.57
2023-04-08T12:28:52.095Z,8.90
2023-04-08T12:31:21.677Z,7.95
2023-04-08T12:33:50.530Z,8.63
2023-04-08T12:36:19.216Z,8.73
2023-04-08T12:38:47.654Z,8.45
2023-04-08T12:41:15.232Z,7.93
2023-04-08T12:43:43.235Z,7.55
2023-04-08T12:46:10.682Z,6.93
2023-04-08T12:48:39.793Z,7.10
2023-04-08T12:51:10.453Z,8.10
2023-04-08T12:53:38.087Z,7.60
2023-04-08T12:56:07.301Z,7.30
2023-04-08T12:58:37.081Z,7.80
2023-04-08T13:01:06.448Z,7.43
2023-04-08T13:03:35.403Z,7.78
2023-04-08T13:06:03.833Z,7.25
2023-04-08T13:08:33.808Z,7.70
2023-04-08T13:11:01.996Z,6.45
2023-04-08T13:13:29.428Z,6.63
2023-04-08T13:15:58.335Z,6.75
2023-04-08T13:18:26.265Z,6.85
2023-04-08T13:20:59.301Z,7.32
2023-04-08T13:23:28.465Z,6.70
2023-04-08T13:26:02.626Z,6.32
2023-04-08T13:28:30.329Z,6.32
2023-04-08T13:30:58.966Z,6.20
2023-04-08T13:33:26.762Z,6.32
2023-04-08T13:35:54.741Z,6.40
2023-04-08T13:38:23.137Z,7.07
2023-04-08T13:40:50.594Z,5.32
2023-04-08T13:43:22.234Z,6.72
2023-04-08T13:45:50.244Z,6.78
2023-04-08T13:48:18.708Z,6.82
2023-04-08T13:50:55.511Z,6.40
2023-04-08T13:53:23.081Z,5.40
2023-04-08T13:55:55.922Z,6.38
2023-04-08T13:58:28.412Z,7.13
2023-04-08T14:00:56.715Z,6.68
2023-04-08T14:03:28.190Z,6.47
2023-04-08T14:05:58.220Z,6.80
2023-04-08T14:10:58.458Z,6.15
2023-04-08T14:13:25.909Z,6.47
2023-04-08T14:15:55.146Z,6.72
2023-04-08T14:18:25.281Z,6.70
2023-04-08T14:20:54.566Z,6.00
2023-04-08T14:23:22.628Z,6.05
2023-04-08T14:25:50.226Z,6.45
2023-04-08T14:28:18.939Z,5.55
2023-04-08T14:30:48.795Z,6.07
2023-04-08T14:33:20.566Z,5.68
2023-04-08T14:35:49.851Z,6.35
2023-04-08T14:38:22.111Z,6.88
2023-04-08T14:40:50.882Z,6.30
2023-04-08T14:43:20.240Z,6.22
2023-04-08T14:45:49.455Z,6.77
2023-04-08T14:48:19.232Z,7.22
2023-04-08T14:50:50.089Z,7.50
2023-04-08T14:53:21.137Z,7.18
2023-04-08T14:55:49.577Z,7.50
2023-04-08T14:58:18.100Z,6.70
2023-04-08T15:00:56.163Z,7.97
2023-04-08T15:03:23.862Z,7.93
2023-04-08T15:05:58.695Z,8.02
2023-04-08T15:08:26.641Z,7.55
2023-04-08T15:10:56.607Z,8.07
2023-04-08T15:13:24.623Z,8.02
2023-04-08T15:15:52.357Z,7.95
2023-04-08T15:18:20.410Z,8.30
2023-04-08T15:20:49.657Z,7.47
2023-04-08T15:23:20.415Z,8.35
2023-04-08T15:25:48.768Z,8.48
2023-04-08T15:28:23.571Z,9.13
2023-04-08T15:30:58.819Z,9.23
2023-04-08T15:33:28.804Z,9.82
2023-04-08T15:35:57.623Z,9.25
2023-04-08T15:38:27.172Z,9.40
2023-04-08T15:40:55.069Z,9.63
2023-04-08T15:43:25.010Z,10.07
2023-04-08T15:45:52.970Z,9.45
2023-04-08T15:48:22.173Z,10.40
2023-04-08T15:50:51.167Z,10.63
2023-04-08T15:53:20.091Z,9.68
2023-04-08T15:55:48.792Z,11.18
2023-04-08T15:58:17.502Z,11.35
2023-04-08T16:00:49.370Z,11.18
2023-04-08T16:03:20.268Z,11.57
2023-04-08T16:05:48.520Z,11.15
2023-04-08T16:08:17.565Z,11.02
2023-04-08T16:10:47.821Z,11.88
2023-04-08T16:13:17.625Z,12.10
2023-04-08T16:15:45.633Z,11.82
2023-04-08T16:18:14.705Z,12.25
2023-04-08T16:20:42.359Z,12.63
2023-04-08T16:23:11.249Z,12.40
2023-04-08T16:25:39.402Z,13.65
2023-04-08T16:28:08.460Z,13.73
2023-04-08T16:30:37.774Z,13.00
2023-04-08T16:33:08.876Z,13.73
2023-04-08T16:35:37.775Z,13.48
2023-04-08T16:38:09.772Z,14.07
2023-04-08T16:40:39.297Z,13.55
2023-04-08T16:43:09.704Z,13.57
2023-04-08T16:48:06.262Z,14.98
2023-04-08T16:50:33.772Z,15.57
2023-04-08T16:53:01.615Z,16.33
2023-04-08T16:55:29.463Z,15.77
2023-04-08T16:57:57.901Z,16.02
2023-04-08T17:00:25.792Z,16.90
2023-04-08T17:02:57.750Z,16.77
2023-04-08T17:05:29.608Z,18.00
2023-04-08T17:07:58.909Z,17.70
2023-04-08T17:10:29.654Z,17.30
2023-04-08T17:12:58.052Z,17.48
2023-04-08T17:15:26.464Z,16.80
2023-04-08T17:17:57.616Z,17.48
2023-04-08T17:20:33.518Z,17.48
2023-04-08T17:23:03.249Z,16.55
2023-04-08T17:25:31.003Z,17.30
2023-04-08T17:27:58.860Z,17.33
2023-04-08T17:30:27.224Z,17.00
2023-04-08T17:32:55.356Z,17.70
2023-04-08T17:35:23.193Z,16.80
2023-04-08T17:37:51.300Z,17.48
2023-04-08T17:40:20.059Z,16.25
2023-04-08T17:42:48.541Z,16.40
2023-04-08T17:45:16.572Z,17.27
2023-04-08T17:47:45.174Z,16.10
2023-04-08T17:50:12.686Z,14.75
2023-04-08T17:52:43.759Z,15.00
2023-04-08T17:55:12.669Z,15.25
2023-04-08T17:57:40.285Z,15.13
2023-04-08T18:00:08.625Z,15.05
2023-04-08T18:02:37.724Z,14.77
2023-04-08T18:05:06.656Z,15.00
2023-04-08T18:07:35.354Z,14.48
2023-04-08T18:10:03.353Z,14.57
2023-04-08T18:12:31.407Z,15.10
2023-04-08T18:15:03.066Z,16.52
2023-04-08T18:17:31.050Z,14.63
2023-04-08T18:19:59.657Z,16.35
2023-04-08T18:22:27.374Z,15.93
2023-04-08T18:24:55.034Z,15.85
2023-04-08T18:27:23.361Z,16.20
2023-04-08T18:29:55.016Z,16.35
2023-04-08T18:32:22.851Z,16.23
2023-04-08T18:34:54.169Z,17.00
2023-04-08T18:37:22.112Z,16.13
2023-04-08T18:39:49.912Z,16.25
2023-04-08T18:42:18.513Z,16.90
2023-04-08T18:44:46.547Z,16.75
2023-04-08T18:47:15.576Z,17.10
2023-04-08T18:49:43.288Z,16.55
2023-04-08T18:52:11.213Z,15.93
2023-04-08T18:54:39.128Z,17.30
2023-04-08T18:57:06.714Z,17.08
2023-04-08T18:59:34.322Z,19.77
2023-04-08T19:02:02.278Z,18.58
2023-04-08T19:04:30.069Z,21.98
2023-04-08T19:07:00.997Z,19.90
2023-04-08T19:09:33.423Z,18.65
2023-04-08T19:12:01.984Z,18.30
2023-04-08T19:14:31.511Z,19.27
2023-04-08T19:16:59.157Z,21.03
2023-04-08T19:19:26.904Z,21.08
2023-04-08T19:21:55.217Z,22.35
2023-04-08T19:24:23.654Z,23.27
2023-04-08T19:26:53.254Z,22.98
2023-04-08T19:29:23.278Z,23.92
2023-04-08T19:31:51.385Z,21.77
2023-04-08T19:34:20.022Z,22.52
2023-04-08T19:36:48.950Z,24.73
2023-04-08T19:39:17.968Z,24.63
2023-04-08T19:41:45.928Z,22.83
2023-04-08T19:44:17.046Z,23.10
2023-04-08T19:46:45.162Z,22.58
2023-04-08T19:49:12.706Z,23.88
2023-04-08T19:51:41.052Z,23.88
2023-04-08T19:54:08.992Z,25.25
2023-04-08T19:56:37.155Z,25.17
2023-04-08T19:59:07.142Z,25.13
2023-04-08T20:01:36.232Z,25.30
2023-04-08T20:04:04.376Z,25.13
2023-04-08T20:06:31.983Z,25.63
2023-04-08T20:09:05.817Z,25.08
2023-04-08T20:11:33.974Z,25.20
2023-04-08T20:14:01.756Z,25.00
2023-04-08T20:16:29.579Z,24.73
2023-04-08T20:18:57.363Z,25.13
2023-04-08T20:21:24.828Z,24.08
2023-04-08T20:23:52.628Z,25.95
2023-04-08T20:26:21.612Z,24.38
2023-04-08T20:28:51.704Z,25.58
2023-04-08T20:31:20.526Z,23.92
2023-04-08T20:33:48.941Z,24.63
2023-04-08T20:36:20.354Z,24.00
2023-04-08T20:38:49.043Z,22.58
2023-04-08T20:41:22.907Z,22.80
2023-04-08T20:43:54.628Z,25.77
2023-04-08T20:46:23.686Z,23.02
2023-04-08T20:48:51.984Z,23.40
2023-04-08T20:51:22.867Z,22.77
2023-04-08T20:53:50.945Z,22.08
2023-04-08T20:56:19.452Z,22.50
2023-04-08T20:58:47.842Z,21.05
2023-04-08T21:01:16.072Z,22.17
2023-04-08T21:03:45.311Z,21.33
2023-04-08T21:06:19.899Z,21.38
2023-04-08T21:08:49.427Z,21.83
2023-04-08T21:11:20.740Z,21.80
2023-04-08T21:13:51.403Z,22.23
2023-04-08T21:16:19.659Z,21.10
2023-04-08T21:18:50.601Z,21.90
2023-04-08T21:21:19.892Z,22.13
2023-04-08T21:23:48.893Z,21.63
2023-04-08T21:26:19.160Z,21.38
2023-04-08T21:28:49.917Z,21.10
2023-04-08T21:31:20.420Z,21.38
2023-04-08T21:36:20.629Z,21.77
2023-04-08T21:38:48.572Z,23.05
2023-04-08T21:41:18.715Z,22.58
2023-04-08T21:43:48.532Z,23.02
2023-04-08T21:46:17.662Z,23.88
2023-04-08T21:48:45.402Z,22.42
2023-04-08T21:51:18.733Z,23.45
2023-04-08T21:53:47.861Z,21.98
2023-04-08T21:56:15.318Z,22.80
2023-04-08T21:58:42.850Z,21.95
2023-04-08T22:01:10.554Z,22.45
2023-04-08T22:03:38.509Z,22.35
2023-04-08T22:06:10.952Z,22.33
2023-04-08T22:08:41.064Z,21.85
2023-04-08T22:11:12.057Z,21.75
2023-04-08T22:13:39.682Z,22.63
2023-04-08T22:16:10.480Z,22.33
2023-04-08T22:18:38.682Z,22.23
2023-04-08T22:21:06.230Z,23.40
2023-04-08T22:23:34.262Z,21.95
2023-04-08T22:26:02.717Z,22.08
2023-04-08T22:28:32.757Z,22.42
2023-04-08T22:31:00.530Z,22.30
2023-04-08T22:33:28.535Z,20.65
2023-04-08T22:35:58.037Z,21.10
2023-04-08T22:38:25.838Z,21.97
2023-04-08T22:40:53.427Z,22.50
2023-04-08T22:43:21.335Z,21.75
2023-04-08T22:45:52.673Z,22.40
2023-04-08T22:48:24.794Z,22.50
2023-04-08T22:50:52.994Z,22.88
2023-04-08T22:53:20.492Z,23.00
2023-04-08T22:55:49.732Z,23.00
2023-04-08T22:58:20.661Z,23.80
2023-04-08T23:00:48.744Z,22.38
2023-04-08T23:03:17.677Z,21.90
2023-04-08T23:05:46.006Z,21.95
2023-04-08T23:08:15.308Z,21.48
2023-04-08T23:10:43.022Z,22.15
2023-04-08T23:13:10.710Z,22.02
2023-04-08T23:15:39.234Z,22.52
2023-04-08T23:18:06.990Z,21.95
2023-04-08T23:20:35.780Z,20.73
2023-04-08T23:23:03.852Z,22.45
2023-04-08T23:25:36.622Z,22.63
2023-04-08T23:28:04.436Z,21.40
2023-04-08T23:30:32.877Z,21.63
2023-04-08T23:33:00.636Z,20.30
2023-04-08T23:35:28.363Z,21.30
2023-04-08T23:37:56.323Z,21.52
2023-04-08T23:40:24.466Z,20.40
2023-04-08T23:42:52.805Z,20.25
2023-04-08T23:45:22.485Z,21.02
2023-04-08T23:47:51.116Z,21.73
2023-04-08T23:50:22.720Z,21.20
2023-04-08T23:52:50.318Z,21.60
2023-04-08T23:55:19.795Z,21.42
2023-04-08T23:57:50.953Z,21.90
